Time,TemperatureF,DewpointF,PressureIn,WindDirection,WindDirectionDegrees,WindSpeedMPH,WindSpeedGustMPH,Humidity,HourlyPrecipIn,Conditions,Clouds,dailyrainin,SoftwareType,DateUTC
2013-09-03 00:09:00,72.0,71.7,29.60,West,270,1.7,-999.0,99,-99.99,,,0.00,Acu-Link.com,2013-09-03 04:09:00,
2013-09-03 00:24:00,72.0,71.7,29.61,NW,315,0.0,-999.0,99,-99.99,,,0.00,Acu-Link.com,2013-09-03 04:24:00,
2013-09-03 00:39:00,72.1,71.8,29.60,ESE,112,1.1,-999.0,99,-99.99,,,0.00,Acu-Link.com,2013-09-03 04:39:00,
2013-09-03 00:54:00,72.0,71.7,29.59,South,180,2.7,-999.0,99,-99.99,,,0.00,Acu-Link.com,2013-09-03 04:54:00,
2013-09-03 01:09:00,71.6,71.3,29.59,SSE,157,1.7,-999.0,99,-99.99,,,0.00,Acu-Link.com,2013-09-03 05:09:00,
2013-09-03 01:25:00,71.2,70.9,29.58,SSE,157,1.7,-999.0,99,-99.99,,,0.00,Acu-Link.com,2013-09-03 05:25:00,
2013-09-03 01:40:00,71.1,70.8,29.58,ESE,112,0.0,-999.0,99,-99.99,,,0.00,Acu-Link.com,2013-09-03 05:40:00,
2013-09-03 01:55:00,70.5,70.2,29.58,SE,135,0.0,-999.0,99,-99.99,,,0.00,Acu-Link.com,2013-09-03 05:55:00,
2013-09-03 02:10:00,70.2,69.9,29.58,South,180,0.0,-999.0,99,-99.99,,,0.00,Acu-Link.com,2013-09-03 06:10:00,
2013-09-03 02:25:00,70.7,70.4,29.58,SW,225,2.2,-999.0,99,-99.99,,,0.00,Acu-Link.com,2013-09-03 06:25:00,
2013-09-03 02:40:00,70.7,70.4,29.57,SSW,202,2.2,-999.0,99,-99.99,,,0.00,Acu-Link.com,2013-09-03 06:40:00,
2013-09-03 02:55:00,70.3,70.0,29.56,NNW,337,1.1,-999.0,99,-99.99,,,0.00,Acu-Link.com,2013-09-03 06:55:00,
2013-09-03 03:10:00,70.0,69.7,29.56,NNW,337,0.0,-999.0,99,-99.99,,,0.00,Acu-Link.com,2013-09-03 07:10:00,
2013-09-03 03:25:00,69.6,69.3,29.57,WNW,292,1.1,-999.0,99,-99.99,,,0.00,Acu-Link.com,2013-09-03 07:25:00,
2013-09-03 03:41:00,70.3,70.0,29.57,NNW,337,3.2,-999.0,99,-99.99,,,0.00,Acu-Link.com,2013-09-03 07:41:00,
2013-09-03 03:56:00,70.3,70.0,29.56,South,180,2.2,-999.0,99,-99.99,,,0.00,Acu-Link.com,2013-09-03 07:56:00,
2013-09-03 04:13:00,70.3,70.0,29.56,SSE,157,0.0,-999.0,99,-99.99,,,0.00,Acu-Link.com,2013-09-03 08:13:00,
2013-09-03 04:28:00,70.3,70.0,29.56,SSW,202,0.0,-999.0,99,-99.99,,,0.00,Acu-Link.com,2013-09-03 08:28:00,
2013-09-03 04:43:00,70.0,69.7,29.56,WSW,247,2.2,-999.0,99,-99.99,,,0.00,Acu-Link.com,2013-09-03 08:43:00,
2013-09-03 04:58:00,70.2,69.9,29.56,North,0,0.0,-999.0,99,-99.99,,,0.00,Acu-Link.com,2013-09-03 08:58:00,
2013-09-03 05:14:00,70.2,69.9,29.58,SW,225,0.0,-999.0,99,-99.99,,,0.00,Acu-Link.com,2013-09-03 09:14:00,
2013-09-03 05:29:00,69.8,69.5,29.59,WNW,292,0.0,-999.0,99,-99.99,,,0.00,Acu-Link.com,2013-09-03 09:29:00,
2013-09-03 05:44:00,68.5,68.2,29.60,North,0,0.0,-999.0,99,-99.99,,,0.00,Acu-Link.com,2013-09-03 09:44:00,
2013-09-03 05:59:00,68.2,67.9,29.60,North,0,0.0,-999.0,99,-99.99,,,0.00,Acu-Link.com,2013-09-03 09:59:00,
2013-09-03 06:14:00,67.5,67.2,29.60,NNE,22,0.0,-999.0,99,-99.99,,,0.00,Acu-Link.com,2013-09-03 10:14:00,
2013-09-03 06:29:00,67.1,66.8,29.60,North,0,0.0,-999.0,99,-99.99,,,0.00,Acu-Link.com,2013-09-03 10:29:00,
2013-09-03 06:44:00,67.3,67.0,29.59,NNE,22,0.0,-999.0,99,-99.99,,,0.00,Acu-Link.com,2013-09-03 10:44:00,
2013-09-03 06:59:00,67.3,67.0,29.61,NNE,22,0.0,-999.0,99,-99.99,,,0.00,Acu-Link.com,2013-09-03 10:59:00,
2013-09-03 07:14:00,67.8,67.5,29.63,NNE,22,0.0,-999.0,99,-99.99,,,0.00,Acu-Link.com,2013-09-03 11:14:00,
2013-09-03 07:30:00,68.9,68.6,29.62,NNE,22,0.0,-999.0,99,-99.99,,,0.00,Acu-Link.com,2013-09-03 11:30:00,
2013-09-03 07:45:00,70.3,70.0,29.62,SW,225,0.0,-999.0,99,-99.99,,,0.00,Acu-Link.com,2013-09-03 11:45:00,
2013-09-03 08:00:00,72.1,70.9,29.63,ESE,112,2.2,-999.0,96,-99.99,,,0.00,Acu-Link.com,2013-09-03 12:00:00,
2013-09-03 08:15:00,73.8,71.6,29.63,ESE,112,2.2,-999.0,93,-99.99,,,0.00,Acu-Link.com,2013-09-03 12:15:00,
2013-09-03 08:30:00,75.0,72.5,29.63,South,180,1.7,-999.0,92,-99.99,,,0.00,Acu-Link.com,2013-09-03 12:30:00,
2013-09-03 08:45:00,76.6,73.1,29.63,West,270,2.7,-999.0,89,-99.99,,,0.00,Acu-Link.com,2013-09-03 12:45:00,
2013-09-03 09:00:00,76.5,73.0,29.63,WNW,292,1.7,-999.0,89,-99.99,,,0.00,Acu-Link.com,2013-09-03 13:00:00,
2013-09-03 09:15:00,75.9,72.4,29.63,SSW,202,2.2,-999.0,89,-99.99,,,0.00,Acu-Link.com,2013-09-03 13:15:00,
2013-09-03 09:30:00,77.4,73.2,29.65,NNE,22,1.1,-999.0,87,-99.99,,,0.00,Acu-Link.com,2013-09-03 13:30:00,
2013-09-03 09:46:00,79.0,73.4,29.65,SSE,157,4.2,-999.0,83,-99.99,,,0.00,Acu-Link.com,2013-09-03 13:46:00,
2013-09-03 10:01:00,79.0,73.4,29.64,South,180,5.3,-999.0,83,-99.99,,,0.00,Acu-Link.com,2013-09-03 14:01:00,
2013-09-03 10:16:00,77.9,71.9,29.65,WNW,292,1.7,-999.0,82,-99.99,,,0.00,Acu-Link.com,2013-09-03 14:16:00,
2013-09-03 10:31:00,77.9,72.7,29.65,SE,135,2.2,-999.0,84,-99.99,,,0.00,Acu-Link.com,2013-09-03 14:31:00,
2013-09-03 10:46:00,77.5,71.9,29.65,SW,225,3.2,-999.0,83,-99.99,,,0.00,Acu-Link.com,2013-09-03 14:46:00,
2013-09-03 11:01:00,77.5,72.3,29.64,SSW,202,1.7,-999.0,84,-99.99,,,0.00,Acu-Link.com,2013-09-03 15:01:00,
2013-09-03 11:16:00,77.7,72.5,29.63,SSW,202,1.7,-999.0,84,-99.99,,,0.00,Acu-Link.com,2013-09-03 15:16:00,
2013-09-03 11:31:00,78.3,72.0,29.62,SE,135,2.7,-999.0,81,-99.99,,,0.00,Acu-Link.com,2013-09-03 15:31:00,
2013-09-03 11:46:00,78.8,71.7,29.62,SSE,157,3.2,-999.0,79,-99.99,,,0.00,Acu-Link.com,2013-09-03 15:46:00,
2013-09-03 12:02:00,78.1,71.8,29.62,South,180,4.2,-999.0,81,-99.99,,,0.00,Acu-Link.com,2013-09-03 16:02:00,
2013-09-03 12:17:00,79.7,72.6,29.61,WNW,292,4.7,-999.0,79,-99.99,,,0.00,Acu-Link.com,2013-09-03 16:17:00,
2013-09-03 12:32:00,79.0,72.7,29.61,West,270,2.7,-999.0,81,-99.99,,,0.00,Acu-Link.com,2013-09-03 16:32:00,
2013-09-03 12:47:00,78.1,73.2,29.62,SW,225,3.7,-999.0,85,-99.99,,,0.00,Acu-Link.com,2013-09-03 16:47:00,
2013-09-03 13:02:00,75.9,72.1,29.62,SSW,202,2.7,-999.0,88,-99.99,,,0.00,Acu-Link.com,2013-09-03 17:02:00,
2013-09-03 13:17:00,76.1,72.3,29.62,SW,225,1.1,-999.0,88,-99.99,,,0.00,Acu-Link.com,2013-09-03 17:17:00,
2013-09-03 13:32:00,76.6,72.4,29.62,SSW,202,3.2,-999.0,87,-99.99,,,0.00,Acu-Link.com,2013-09-03 17:32:00,
2013-09-03 13:47:00,77.0,72.8,29.61,SSW,202,1.7,-999.0,87,-99.99,,,0.00,Acu-Link.com,2013-09-03 17:47:00,
2013-09-03 14:02:00,77.2,72.7,29.61,SE,135,1.7,-999.0,86,-99.99,,,0.00,Acu-Link.com,2013-09-03 18:02:00,
2013-09-03 14:18:00,76.6,72.8,29.60,WSW,247,4.2,-999.0,88,-99.99,,,0.00,Acu-Link.com,2013-09-03 18:18:00,
2013-09-03 14:33:00,76.6,72.8,29.60,NNW,337,1.7,-999.0,88,-99.99,,,0.00,Acu-Link.com,2013-09-03 18:33:00,
2013-09-03 14:48:00,76.1,72.6,29.62,ESE,112,2.7,-999.0,89,-99.99,,,0.00,Acu-Link.com,2013-09-03 18:48:00,
2013-09-03 15:03:00,75.7,72.6,29.62,South,180,4.2,-999.0,90,-99.99,,,0.00,Acu-Link.com,2013-09-03 19:03:00,
2013-09-03 15:18:00,75.9,72.7,29.61,South,180,3.2,-999.0,90,-99.99,,,0.00,Acu-Link.com,2013-09-03 19:18:00,
2013-09-03 15:33:00,76.6,73.1,29.60,WSW,247,1.7,-999.0,89,-99.99,,,0.00,Acu-Link.com,2013-09-03 19:33:00,
2013-09-03 15:49:00,75.2,72.1,29.60,South,180,3.2,-999.0,90,-99.99,,,0.00,Acu-Link.com,2013-09-03 19:49:00,
2013-09-03 16:04:00,74.5,72.0,29.59,West,270,3.2,-999.0,92,-99.99,,,0.03,Acu-Link.com,2013-09-03 20:04:00,
2013-09-03 16:19:00,76.5,73.3,29.59,WSW,247,5.8,-999.0,90,-99.99,,,0.03,Acu-Link.com,2013-09-03 20:19:00,
2013-09-03 16:34:00,77.0,73.2,29.59,SW,225,6.8,-999.0,88,-99.99,,,0.03,Acu-Link.com,2013-09-03 20:34:00,
2013-09-03 16:49:00,77.4,73.2,29.60,SW,225,4.2,-999.0,87,-99.99,,,0.03,Acu-Link.com,2013-09-03 20:49:00,
2013-09-03 17:04:00,77.0,72.8,29.61,South,180,6.8,-999.0,87,-99.99,,,0.03,Acu-Link.com,2013-09-03 21:04:00,
2013-09-03 17:19:00,75.9,72.1,29.60,South,180,3.7,-999.0,88,-99.99,,,0.03,Acu-Link.com,2013-09-03 21:19:00,
2013-09-03 17:34:00,75.0,71.5,29.61,SSW,202,4.7,-999.0,89,-99.99,,,0.03,Acu-Link.com,2013-09-03 21:34:00,
2013-09-03 17:49:00,74.3,71.2,29.60,West,270,3.7,-999.0,90,-99.99,,,0.03,Acu-Link.com,2013-09-03 21:49:00,
2013-09-03 18:05:00,74.3,71.2,29.61,West,270,2.2,-999.0,90,-99.99,,,0.03,Acu-Link.com,2013-09-03 22:05:00,
2013-09-03 18:20:00,73.9,70.8,29.60,NW,315,4.7,-999.0,90,-99.99,,,0.03,Acu-Link.com,2013-09-03 22:20:00,
2013-09-03 18:35:00,74.1,69.6,29.61,NNE,22,1.1,-999.0,86,-99.99,,,0.03,Acu-Link.com,2013-09-03 22:35:00,
2013-09-03 18:50:00,73.4,69.3,29.62,West,270,0.0,-999.0,87,-99.99,,,0.03,Acu-Link.com,2013-09-03 22:50:00,
2013-09-03 19:05:00,72.5,68.4,29.62,East,90,0.0,-999.0,87,-99.99,,,0.03,Acu-Link.com,2013-09-03 23:05:00,
2013-09-03 19:20:00,71.4,68.3,29.62,SE,135,0.0,-999.0,90,-99.99,,,0.03,Acu-Link.com,2013-09-03 23:20:00,
2013-09-03 19:35:00,71.2,68.1,29.63,South,180,0.0,-999.0,90,-99.99,,,0.03,Acu-Link.com,2013-09-03 23:35:00,
2013-09-03 19:50:00,70.2,67.4,29.64,South,180,0.0,-999.0,91,-99.99,,,0.03,Acu-Link.com,2013-09-03 23:50:00,
2013-09-03 20:05:00,68.7,66.6,29.65,ESE,112,0.0,-999.0,93,-99.99,,,0.03,Acu-Link.com,2013-09-04 00:05:00,
2013-09-03 20:20:00,68.0,65.9,29.65,NW,315,0.0,-999.0,93,-99.99,,,0.03,Acu-Link.com,2013-09-04 00:20:00,
2013-09-03 20:36:00,67.1,65.3,29.65,SW,225,0.0,-999.0,94,-99.99,,,0.03,Acu-Link.com,2013-09-04 00:36:00,
2013-09-03 20:51:00,66.4,64.9,29.66,SW,225,0.0,-999.0,95,-99.99,,,0.03,Acu-Link.com,2013-09-04 00:51:00,
2013-09-03 21:06:00,65.7,64.2,29.67,South,180,0.0,-999.0,95,-99.99,,,0.03,Acu-Link.com,2013-09-04 01:06:00,
2013-09-03 21:21:00,64.8,63.3,29.67,South,180,0.0,-999.0,95,-99.99,,,0.03,Acu-Link.com,2013-09-04 01:21:00,
2013-09-03 21:36:00,63.9,62.7,29.67,WSW,247,0.0,-999.0,96,-99.99,,,0.03,Acu-Link.com,2013-09-04 01:36:00,
2013-09-03 21:51:00,63.3,62.4,29.67,WSW,247,0.0,-999.0,97,-99.99,,,0.03,Acu-Link.com,2013-09-04 01:51:00,
2013-09-03 22:06:00,63.0,62.4,29.67,WSW,247,0.0,-999.0,98,-99.99,,,0.03,Acu-Link.com,2013-09-04 02:06:00,
2013-09-03 22:21:00,63.0,62.7,29.69,ESE,112,0.0,-999.0,99,-99.99,,,0.03,Acu-Link.com,2013-09-04 02:21:00,
2013-09-03 22:36:00,62.8,62.5,29.69,East,90,0.0,-999.0,99,-99.99,,,0.03,Acu-Link.com,2013-09-04 02:36:00,
2013-09-03 22:52:00,62.6,62.0,29.69,SSW,202,1.7,-999.0,98,-99.99,,,0.03,Acu-Link.com,2013-09-04 02:52:00,
2013-09-03 23:07:00,62.1,61.5,29.68,NNW,337,0.0,-999.0,98,-99.99,,,0.03,Acu-Link.com,2013-09-04 03:07:00,
2013-09-03 23:22:00,62.1,60.6,29.69,ESE,112,0.0,-999.0,95,-99.99,,,0.03,Acu-Link.com,2013-09-04 03:22:00,
2013-09-03 23:37:00,61.5,60.1,29.69,SSW,202,0.0,-999.0,95,-99.99,,,0.03,Acu-Link.com,2013-09-04 03:37:00,
2013-09-03 23:52:00,60.8,59.9,29.70,SE,135,0.0,-999.0,97,-99.99,,,0.03,Acu-Link.com,2013-09-04 03:52:00,